createdAt,value
2018-08-12T00:00:50.918Z,93.37
2018-08-12T00:01:51.157Z,93.74
2018-08-12T00:02:51.394Z,93.93
2018-08-12T00:03:51.634Z,93.27
2018-08-12T00:04:51.873Z,92.98
2018-08-12T00:05:52.119Z,92.79
2018-08-12T00:06:52.352Z,92.50
2018-08-12T00:07:52.591Z,92.69
2018-08-12T00:08:52.830Z,92.55
2018-08-12T00:09:53.070Z,92.08
2018-08-12T00:10:53.308Z,92.18
2018-08-12T00:11:53.548Z,92.03
2018-08-12T00:12:53.786Z,91.89
2018-08-12T00:13:54.025Z,92.08
2018-08-12T00:14:54.263Z,91.89
2018-08-12T00:15:54.501Z,92.18
2018-08-12T00:16:54.740Z,92.08
2018-08-12T00:17:54.979Z,92.08
2018-08-12T00:18:55.221Z,92.27
2018-08-12T00:19:55.457Z,91.79
2018-08-12T00:20:55.697Z,91.13
2018-08-12T00:21:55.935Z,91.03
2018-08-12T00:22:56.173Z,91.03
2018-08-12T00:23:56.412Z,90.75
2018-08-12T00:24:56.650Z,91.22
2018-08-12T00:25:56.890Z,91.70
2018-08-12T00:26:57.128Z,91.22
2018-08-12T00:27:57.371Z,90.27
2018-08-12T00:28:57.605Z,90.46
2018-08-12T00:29:57.845Z,90.17
2018-08-12T00:30:58.083Z,90.08
2018-08-12T00:31:58.322Z,89.41
2018-08-12T00:32:58.560Z,89.70
2018-08-12T00:33:58.799Z,89.79
2018-08-12T00:34:59.038Z,90.17
2018-08-12T00:35:59.276Z,90.17
2018-08-12T00:36:59.514Z,90.75
2018-08-12T00:37:59.752Z,90.56
2018-08-12T00:38:59.992Z,90.27
2018-08-12T00:40:00.235Z,89.70
2018-08-12T00:41:00.469Z,89.41
2018-08-12T00:42:00.713Z,88.46
2018-08-12T00:43:00.946Z,88.27
2018-08-12T00:44:01.187Z,87.41
2018-08-12T00:45:01.423Z,88.65
2018-08-12T00:46:01.660Z,88.27
2018-08-12T00:47:01.898Z,89.41
2018-08-12T00:48:02.137Z,90.65
2018-08-12T00:49:02.376Z,91.79
2018-08-12T00:50:02.614Z,92.32
2018-08-12T00:51:02.854Z,91.65
2018-08-12T00:52:03.092Z,93.79
2018-08-12T00:53:03.330Z,91.60
2018-08-12T00:54:03.570Z,91.60
2018-08-12T00:55:03.810Z,91.99
2018-08-12T00:56:04.047Z,91.70
2018-08-12T00:57:04.285Z,91.60
2018-08-12T00:58:04.523Z,88.60
2018-08-12T00:59:04.764Z,88.42
2018-08-12T01:00:05.003Z,88.42
2018-08-12T01:01:05.241Z,87.08
2018-08-12T01:02:05.478Z,88.23
2018-08-12T01:03:05.714Z,87.46
2018-08-12T01:04:05.953Z,86.99
2018-08-12T01:05:06.191Z,85.85
2018-08-12T01:06:06.431Z,89.37
2018-08-12T01:07:06.669Z,87.94
2018-08-12T01:08:06.906Z,88.13
2018-08-12T01:09:07.144Z,86.99
2018-08-12T01:10:07.380Z,87.46
2018-08-12T01:11:07.608Z,88.99
2018-08-12T01:12:07.855Z,89.47
2018-08-12T01:13:08.091Z,88.79
2018-08-12T01:14:08.329Z,90.70
2018-08-12T01:15:08.566Z,90.94
2018-08-12T01:16:08.803Z,90.94
2018-08-12T01:17:09.044Z,90.56
2018-08-12T01:18:09.277Z,90.80
2018-08-12T01:19:09.515Z,90.56
2018-08-12T01:20:09.758Z,90.51
2018-08-12T01:21:09.990Z,90.61
2018-08-12T01:22:10.227Z,89.84
2018-08-12T01:23:10.468Z,89.37
2018-08-12T01:24:10.703Z,88.51
2018-08-12T01:25:10.940Z,87.08
2018-08-12T01:26:11.179Z,86.99
2018-08-12T01:27:11.417Z,87.65
2018-08-12T01:28:11.653Z,89.94
2018-08-12T01:29:11.891Z,90.42
2018-08-12T01:30:12.129Z,90.56
2018-08-12T01:31:12.367Z,91.41
2018-08-12T01:32:12.607Z,92.27
2018-08-12T01:33:12.843Z,92.94
2018-08-12T01:34:13.086Z,93.13
2018-08-12T01:35:13.321Z,93.55
2018-08-12T01:36:13.557Z,93.27
2018-08-12T01:37:13.796Z,93.37
2018-08-12T01:38:14.036Z,92.84
2018-08-12T01:39:14.272Z,93.22
2018-08-12T01:40:14.508Z,91.51
2018-08-12T01:41:14.745Z,91.31
2018-08-12T01:42:14.983Z,89.98
2018-08-12T01:43:15.220Z,90.08
2018-08-12T01:44:15.461Z,90.22
2018-08-12T01:45:15.696Z,88.42
2018-08-12T01:46:15.933Z,88.13
2018-08-12T01:47:16.171Z,87.37
2018-08-12T01:48:16.409Z,86.22
2018-08-12T01:49:16.646Z,85.66
2018-08-12T01:50:16.884Z,85.66
2018-08-12T01:51:17.121Z,85.37
2018-08-12T01:52:17.359Z,86.32
2018-08-12T01:53:17.597Z,88.13
2018-08-12T01:54:17.835Z,88.42
2018-08-12T01:55:18.072Z,89.27
2018-08-12T01:56:18.312Z,89.56
2018-08-12T01:57:18.550Z,89.47
2018-08-12T01:58:18.787Z,88.60
2018-08-12T01:59:19.027Z,89.65
2018-08-12T02:00:19.263Z,89.56
2018-08-12T02:01:19.502Z,89.84
2018-08-12T02:02:19.738Z,90.61
2018-08-12T02:03:19.976Z,90.75
2018-08-12T02:04:20.212Z,90.08
2018-08-12T02:05:20.449Z,90.94
2018-08-12T02:06:20.686Z,90.65
2018-08-12T02:07:20.924Z,91.31
2018-08-12T02:08:21.162Z,91.31
2018-08-12T02:09:21.400Z,91.79
2018-08-12T02:10:21.640Z,91.51
2018-08-12T02:11:21.874Z,91.03
2018-08-12T02:12:22.113Z,90.75
2018-08-12T02:13:22.351Z,90.03
2018-08-12T02:14:22.589Z,88.79
2018-08-12T02:15:22.828Z,87.37
2018-08-12T02:16:23.064Z,86.28
2018-08-12T02:17:23.302Z,86.38
2018-08-12T02:18:23.540Z,85.71
2018-08-12T02:19:23.778Z,85.42
2018-08-12T02:20:24.017Z,86.09
2018-08-12T02:21:24.254Z,84.00
2018-08-12T02:22:24.492Z,83.90
2018-08-12T02:23:24.728Z,83.23
2018-08-12T02:24:24.964Z,83.81
2018-08-12T02:25:25.203Z,83.81
2018-08-12T02:26:25.440Z,83.90
2018-08-12T02:27:25.677Z,83.52
2018-08-12T02:28:25.914Z,83.81
2018-08-12T02:29:26.152Z,84.85
2018-08-12T02:30:26.389Z,85.24
2018-08-12T02:31:26.626Z,85.61
2018-08-12T02:32:26.867Z,85.14
2018-08-12T02:33:27.101Z,84.09
2018-08-12T02:34:27.339Z,82.95
2018-08-12T02:35:27.577Z,83.23
2018-08-12T02:36:27.813Z,83.90
2018-08-12T02:37:28.053Z,84.00
2018-08-12T02:38:28.289Z,83.23
2018-08-12T02:39:28.523Z,83.23
2018-08-12T02:40:28.762Z,84.09
2018-08-12T02:41:29.004Z,84.66
2018-08-12T02:42:29.235Z,84.85
2018-08-12T02:43:29.474Z,82.95
2018-08-12T02:44:29.714Z,81.62
2018-08-12T02:45:29.948Z,81.67
2018-08-12T02:46:30.184Z,81.81
2018-08-12T02:47:30.421Z,81.38
2018-08-12T02:48:30.656Z,79.49
2018-08-12T02:49:30.897Z,78.82
2018-08-12T02:50:31.132Z,79.96
2018-08-12T02:51:31.370Z,79.11
2018-08-12T02:52:31.609Z,79.11
2018-08-12T02:53:31.847Z,78.44
2018-08-12T02:54:32.084Z,78.72
2018-08-12T02:55:32.321Z,78.72
2018-08-12T02:56:32.560Z,78.16
2018-08-12T02:57:32.799Z,78.82
2018-08-12T02:58:33.037Z,80.15
2018-08-12T02:59:33.273Z,79.52
2018-08-12T03:00:33.510Z,80.10
2018-08-12T03:01:33.747Z,80.19
2018-08-12T03:02:33.985Z,80.10
2018-08-12T03:03:34.222Z,79.72
2018-08-12T03:04:34.459Z,79.43
2018-08-12T03:05:34.696Z,79.91
2018-08-12T03:06:34.934Z,80.57
2018-08-12T03:07:35.173Z,81.33
2018-08-12T03:08:35.410Z,82.57
2018-08-12T03:09:35.650Z,82.48
2018-08-12T03:10:35.887Z,82.57
2018-08-12T03:11:36.123Z,82.86
2018-08-12T03:12:36.359Z,82.86
2018-08-12T03:13:36.596Z,82.57
2018-08-12T03:14:36.833Z,82.09
2018-08-12T03:15:37.071Z,81.81
2018-08-12T03:16:37.309Z,80.29
2018-08-12T03:17:37.546Z,80.19
2018-08-12T03:18:37.785Z,79.77
2018-08-12T03:19:38.019Z,77.68
2018-08-12T03:20:38.259Z,77.87
2018-08-12T03:21:38.496Z,77.39
2018-08-12T03:22:38.735Z,76.25
2018-08-12T03:23:38.972Z,73.49
2018-08-12T03:24:39.210Z,72.35
2018-08-12T03:25:39.447Z,72.35
2018-08-12T03:26:39.686Z,72.55
2018-08-12T03:27:39.923Z,73.40
2018-08-12T03:28:40.162Z,71.02
2018-08-12T03:29:40.398Z,71.31
2018-08-12T03:30:40.636Z,71.41
2018-08-12T03:31:40.875Z,71.78
2018-08-12T03:32:41.111Z,71.41
2018-08-12T03:33:41.351Z,68.07
2018-08-12T03:34:41.589Z,67.69
2018-08-12T03:35:41.827Z,68.07
2018-08-12T03:36:42.065Z,69.21
2018-08-12T03:37:42.303Z,69.41
2018-08-12T03:38:42.540Z,72.64
2018-08-12T03:39:42.778Z,75.40
2018-08-12T03:40:43.015Z,75.02
2018-08-12T03:41:43.253Z,78.63
2018-08-12T03:42:43.491Z,75.30
2018-08-12T03:43:43.728Z,77.49
2018-08-12T03:44:43.967Z,79.44
2018-08-12T03:45:44.205Z,75.26
2018-08-12T03:46:44.442Z,70.99
2018-08-12T03:47:44.680Z,78.11
2018-08-12T03:48:44.970Z,77.64
2018-08-12T03:49:45.155Z,71.94
2018-08-12T03:50:45.395Z,76.12
2018-08-12T03:51:45.629Z,73.27
2018-08-12T03:52:45.867Z,76.97
2018-08-12T03:53:46.104Z,79.63
2018-08-12T03:54:46.341Z,72.89
2018-08-12T03:55:46.579Z,77.64
2018-08-12T03:56:46.814Z,71.94
2018-08-12T03:57:47.052Z,76.97
2018-08-12T03:58:47.289Z,74.88
2018-08-12T03:59:47.528Z,71.18
2018-08-12T04:00:47.764Z,71.84
2018-08-12T04:01:48.001Z,72.13
2018-08-12T04:02:48.238Z,70.70
2018-08-12T04:03:48.475Z,70.32
2018-08-12T04:04:48.713Z,69.27
2018-08-12T04:05:48.950Z,69.09
2018-08-12T04:06:49.187Z,70.42
2018-08-12T04:07:49.425Z,73.21
2018-08-12T04:08:49.664Z,74.35
2018-08-12T04:09:49.899Z,74.16
2018-08-12T04:10:50.136Z,73.30
2018-08-12T04:11:50.373Z,71.12
2018-08-12T04:12:50.610Z,70.45
2018-08-12T04:13:50.848Z,71.31
2018-08-12T04:14:51.085Z,73.21
2018-08-12T04:15:51.322Z,73.78
2018-08-12T04:16:51.560Z,73.30
2018-08-12T04:17:51.797Z,73.40
2018-08-12T04:18:52.062Z,72.79
2018-08-12T04:19:52.273Z,72.13
2018-08-12T04:20:52.509Z,71.18
2018-08-12T04:21:52.748Z,73.69
2018-08-12T04:22:52.985Z,76.92
2018-08-12T04:23:53.223Z,79.96
2018-08-12T04:24:53.461Z,80.72
2018-08-12T04:25:53.698Z,82.24
2018-08-12T04:26:53.935Z,79.86
2018-08-12T04:27:54.174Z,80.53
2018-08-12T04:28:54.410Z,81.29
2018-08-12T04:29:54.648Z,81.67
2018-08-12T04:30:54.885Z,81.86
2018-08-12T04:31:55.122Z,82.71
2018-08-12T04:32:55.360Z,81.01
2018-08-12T04:33:55.598Z,80.82
2018-08-12T04:34:55.833Z,77.39
2018-08-12T04:35:56.075Z,81.77
2018-08-12T04:36:56.311Z,83.10
2018-08-12T04:37:56.548Z,83.19
2018-08-12T04:38:56.786Z,82.53
2018-08-12T04:39:57.024Z,82.57
2018-08-12T04:40:57.262Z,82.19
2018-08-12T04:41:57.499Z,82.38
2018-08-12T04:42:57.737Z,83.04
2018-08-12T04:43:57.976Z,83.42
2018-08-12T04:44:58.212Z,82.86
2018-08-12T04:45:58.484Z,84.00
2018-08-12T04:46:58.689Z,84.28
2018-08-12T04:47:58.962Z,85.04
2018-08-12T04:48:59.164Z,85.80
2018-08-12T04:49:59.402Z,86.80
2018-08-12T04:50:59.642Z,87.56
2018-08-12T04:51:59.877Z,87.94
2018-08-12T04:53:00.115Z,88.70
2018-08-12T04:54:00.352Z,88.13
2018-08-12T04:55:00.591Z,88.23
2018-08-12T04:56:00.829Z,89.32
2018-08-12T04:57:01.069Z,88.51
2018-08-12T04:58:01.307Z,88.04
2018-08-12T04:59:01.544Z,89.61
2018-08-12T05:00:01.785Z,89.79
2018-08-12T05:01:02.024Z,89.03
2018-08-12T05:02:02.262Z,89.51
2018-08-12T05:03:02.499Z,88.37
2018-08-12T05:04:02.739Z,88.37
2018-08-12T05:05:02.977Z,87.60
2018-08-12T05:06:03.217Z,89.32
2018-08-12T05:07:03.455Z,89.41
2018-08-12T05:08:03.693Z,89.61
2018-08-12T05:09:03.932Z,89.13
2018-08-12T05:10:04.177Z,88.65
2018-08-12T05:11:04.410Z,88.93
2018-08-12T05:12:04.648Z,89.41
2018-08-12T05:13:04.887Z,90.46
2018-08-12T05:14:05.126Z,90.65
2018-08-12T05:15:05.363Z,90.65
2018-08-12T05:16:05.603Z,90.46
2018-08-12T05:17:05.840Z,89.70
2018-08-12T05:18:06.081Z,88.27
2018-08-12T05:19:06.318Z,89.13
2018-08-12T05:20:06.557Z,89.51
2018-08-12T05:21:06.795Z,89.89
2018-08-12T05:22:07.034Z,90.27
2018-08-12T05:23:07.275Z,88.46
2018-08-12T05:24:07.541Z,90.56
2018-08-12T05:25:07.748Z,90.84
2018-08-12T05:26:07.987Z,91.03
2018-08-12T05:27:08.226Z,91.51
2018-08-12T05:28:08.465Z,91.46
2018-08-12T05:29:08.704Z,91.84
2018-08-12T05:30:08.943Z,90.70
2018-08-12T05:31:09.179Z,90.70
2018-08-12T05:32:09.418Z,91.46
2018-08-12T05:33:09.656Z,90.50
2018-08-12T05:34:09.898Z,90.89
2018-08-12T05:35:10.135Z,89.94
2018-08-12T05:36:10.459Z,90.03
2018-08-12T05:37:10.613Z,90.79
2018-08-12T05:38:10.851Z,90.79
2018-08-12T05:39:11.090Z,90.70
2018-08-12T05:40:11.329Z,91.84
2018-08-12T05:41:11.566Z,92.22
2018-08-12T05:42:11.805Z,92.41
2018-08-12T05:43:12.044Z,92.32
2018-08-12T05:44:12.282Z,92.79
2018-08-12T05:45:12.522Z,92.84
2018-08-12T05:46:12.760Z,92.84
2018-08-12T05:47:13.002Z,92.84
2018-08-12T05:48:13.238Z,93.12
2018-08-12T05:49:13.477Z,92.84
2018-08-12T05:50:13.716Z,93.03
2018-08-12T05:51:13.977Z,93.03
2018-08-12T05:52:14.194Z,94.46
2018-08-12T05:53:14.434Z,94.65
2018-08-12T05:54:14.673Z,95.03
2018-08-12T05:55:14.912Z,94.98
2018-08-12T05:56:15.152Z,95.37
2018-08-12T05:57:15.419Z,94.79
2018-08-12T05:58:15.630Z,94.98
2018-08-12T05:59:15.870Z,96.41
2018-08-12T06:00:16.110Z,95.75
2018-08-12T06:01:16.349Z,95.56
2018-08-12T06:02:16.590Z,95.65
2018-08-12T06:03:16.828Z,95.75
2018-08-12T06:04:17.069Z,96.37
2018-08-12T06:05:17.308Z,96.94
2018-08-12T06:06:17.548Z,96.08
2018-08-12T06:07:17.787Z,96.08
2018-08-12T06:08:18.030Z,95.61
2018-08-12T06:09:18.267Z,95.98
2018-08-12T06:10:18.507Z,96.51
2018-08-12T06:11:18.746Z,95.94
2018-08-12T06:12:18.987Z,96.51
2018-08-12T06:13:19.226Z,95.84
2018-08-12T06:14:19.467Z,96.03
2018-08-12T06:15:19.707Z,95.94
2018-08-12T06:16:19.948Z,95.84
2018-08-12T06:17:20.239Z,95.17
2018-08-12T06:18:20.426Z,95.98
2018-08-12T06:19:20.664Z,95.46
2018-08-12T06:20:20.905Z,95.75
2018-08-12T06:21:21.146Z,95.89
2018-08-12T06:22:21.388Z,95.32
2018-08-12T06:23:21.626Z,95.22
2018-08-12T06:24:21.867Z,95.51
2018-08-12T06:25:22.107Z,95.70
2018-08-12T06:26:22.350Z,95.12
2018-08-12T06:27:22.588Z,94.98
2018-08-12T06:28:22.828Z,95.65
2018-08-12T06:29:23.068Z,95.27
2018-08-12T06:30:23.308Z,94.60
2018-08-12T06:31:23.591Z,94.60
2018-08-12T06:32:23.813Z,94.02
2018-08-12T06:33:24.030Z,93.21
2018-08-12T06:34:24.297Z,93.02
2018-08-12T06:35:24.518Z,91.49
2018-08-12T06:36:24.757Z,90.67
2018-08-12T06:37:24.998Z,89.81
2018-08-12T06:38:25.246Z,89.81
2018-08-12T06:39:25.476Z,88.95
2018-08-12T06:40:25.723Z,88.81
2018-08-12T06:41:25.962Z,87.08
2018-08-12T06:42:26.204Z,84.92
2018-08-12T06:43:26.446Z,81.67
2018-08-12T06:44:26.690Z,79.60
2018-08-12T06:45:26.933Z,81.52
2018-08-12T06:46:27.198Z,79.60
2018-08-12T06:47:27.413Z,78.84
2018-08-12T06:48:27.655Z,73.38
2018-08-12T06:49:27.897Z,73.09
2018-08-12T06:50:28.139Z,76.00
2018-08-12T06:51:28.383Z,72.74
2018-08-12T06:52:28.627Z,73.32
2018-08-12T06:53:28.870Z,74.18
2018-08-12T06:54:29.109Z,70.67
2018-08-12T06:55:29.351Z,67.44
2018-08-12T06:56:29.595Z,66.77
2018-08-12T06:57:29.837Z,62.77
2018-08-12T06:58:30.080Z,60.14
2018-08-12T06:59:30.322Z,57.58
2018-08-12T07:00:30.597Z,54.08
2018-08-12T07:01:30.807Z,53.43
2018-08-12T07:02:31.052Z,51.62
2018-08-12T07:03:31.292Z,50.59
2018-08-12T07:04:31.536Z,48.88
2018-08-12T07:05:31.781Z,47.94
2018-08-12T07:06:32.025Z,47.27
2018-08-12T07:07:32.270Z,46.49
2018-08-12T07:08:32.511Z,45.84
2018-08-12T07:09:32.757Z,45.07
2018-08-12T07:10:32.995Z,44.22
2018-08-12T07:11:33.238Z,44.24
2018-08-12T07:12:33.482Z,43.98
2018-08-12T07:13:33.729Z,42.62
2018-08-12T07:14:33.956Z,42.65
2018-08-12T07:15:34.215Z,42.35
2018-08-12T07:16:34.460Z,41.60
2018-08-12T07:17:34.705Z,40.65
2018-08-12T07:18:34.950Z,40.19
2018-08-12T07:19:35.195Z,39.14
2018-08-12T07:20:35.459Z,38.13
2018-08-12T07:21:35.706Z,39.37
2018-08-12T07:22:35.952Z,39.47
2018-08-12T07:23:36.199Z,39.76
2018-08-12T07:24:36.495Z,39.86
2018-08-12T07:25:36.691Z,40.42
2018-08-12T07:26:36.938Z,40.65
2018-08-12T07:27:37.185Z,40.98
2018-08-12T07:28:37.437Z,40.15
2018-08-12T07:29:37.677Z,39.95
2018-08-12T07:30:37.929Z,39.80
2018-08-12T07:31:38.174Z,39.34
2018-08-12T07:32:38.420Z,37.81
2018-08-12T07:33:38.669Z,36.76
2018-08-12T07:34:38.917Z,35.72
2018-08-12T07:35:39.164Z,35.16
2018-08-12T07:36:39.411Z,33.91
2018-08-12T07:37:39.659Z,33.43
2018-08-12T07:38:39.913Z,33.91
2018-08-12T07:39:40.157Z,32.97
2018-08-12T07:40:40.405Z,32.97
2018-08-12T07:41:40.654Z,32.97
2018-08-12T07:42:40.903Z,32.49
2018-08-12T07:43:41.153Z,32.49
2018-08-12T07:44:41.402Z,31.71
2018-08-12T07:45:41.653Z,31.51
2018-08-12T07:46:41.901Z,32.00
2018-08-12T07:47:42.152Z,31.64
2018-08-12T07:48:42.406Z,30.87
2018-08-12T07:49:42.652Z,30.57
2018-08-12T07:50:42.890Z,31.04
2018-08-12T07:51:43.158Z,30.65
2018-08-12T07:52:43.409Z,31.04
2018-08-12T07:53:43.657Z,31.24
2018-08-12T07:54:43.908Z,31.73
2018-08-12T07:55:44.242Z,31.51
2018-08-12T07:56:44.406Z,31.98
2018-08-12T07:57:44.656Z,32.55
2018-08-12T07:58:44.907Z,32.96
2018-08-12T07:59:45.148Z,32.92
2018-08-12T08:00:45.448Z,33.12
2018-08-12T08:01:45.646Z,33.51
2018-08-12T08:02:45.898Z,33.12
2018-08-12T08:03:46.147Z,33.53
2018-08-12T08:04:46.400Z,32.10
2018-08-12T08:05:46.651Z,31.81
2018-08-12T08:06:46.901Z,31.45
2018-08-12T08:07:47.142Z,30.65
2018-08-12T08:08:47.413Z,30.85
2018-08-12T08:09:47.667Z,31.04
2018-08-12T08:10:47.914Z,31.50
2018-08-12T08:11:48.164Z,31.61
2018-08-12T08:12:48.416Z,32.20
2018-08-12T08:13:48.669Z,33.07
2018-08-12T08:14:48.919Z,31.58
2018-08-12T08:15:49.169Z,32.54
2018-08-12T08:16:49.421Z,32.45
2018-08-12T08:17:49.673Z,32.10
2018-08-12T08:18:49.930Z,32.20
2018-08-12T08:19:50.235Z,31.64
2018-08-12T08:20:50.429Z,31.37
2018-08-12T08:21:50.681Z,29.72
2018-08-12T08:22:50.929Z,29.91
2018-08-12T08:23:51.268Z,29.63
2018-08-12T08:24:51.526Z,28.86
2018-08-12T08:25:51.802Z,29.50
2018-08-12T08:26:52.027Z,30.85
2018-08-12T08:27:52.279Z,31.40
2018-08-12T08:28:52.557Z,32.44
2018-08-12T08:29:52.822Z,33.39
2018-08-12T08:30:53.113Z,33.49
2018-08-12T08:31:53.546Z,33.41
2018-08-12T08:32:53.630Z,32.76
2018-08-12T08:33:53.881Z,31.82
2018-08-12T08:34:54.133Z,31.06
2018-08-12T08:35:54.387Z,31.22
2018-08-12T08:36:54.639Z,30.85
2018-08-12T08:37:54.929Z,30.87
2018-08-12T08:38:55.143Z,30.36
2018-08-12T08:39:55.402Z,30.19
2018-08-12T08:40:55.645Z,30.29
2018-08-12T08:41:55.897Z,30.55
2018-08-12T08:42:56.149Z,30.87
2018-08-12T08:43:56.450Z,30.47
2018-08-12T08:44:56.651Z,30.65
2018-08-12T08:45:56.903Z,30.77
2018-08-12T08:46:57.154Z,30.55
2018-08-12T08:47:57.406Z,30.58
2018-08-12T08:48:57.657Z,30.67
2018-08-12T08:49:57.982Z,31.30
2018-08-12T08:50:58.161Z,31.51
2018-08-12T08:51:58.437Z,31.22
2018-08-12T08:52:58.665Z,31.60
2018-08-12T08:53:58.917Z,32.17
2018-08-12T08:54:59.171Z,33.02
2018-08-12T08:55:59.453Z,32.86
2018-08-12T08:56:59.675Z,32.45
2018-08-12T08:57:59.929Z,32.45
2018-08-12T08:59:00.177Z,32.76
2018-08-12T09:00:00.434Z,31.84
2018-08-12T09:01:00.678Z,31.51
2018-08-12T09:02:00.931Z,31.81
2018-08-12T09:03:01.180Z,31.14
2018-08-12T09:04:01.434Z,31.22
2018-08-12T09:05:01.688Z,32.55
2018-08-12T09:06:01.936Z,31.88
2018-08-12T09:07:02.223Z,31.35
2018-08-12T09:08:02.509Z,30.57
2018-08-12T09:09:02.916Z,30.28
2018-08-12T09:10:03.013Z,29.99
2018-08-12T09:11:03.269Z,30.22
2018-08-12T09:12:03.522Z,29.17
2018-08-12T09:13:03.773Z,28.65
2018-08-12T09:14:04.026Z,28.93
2018-08-12T09:15:04.275Z,28.85
2018-08-12T09:16:04.567Z,28.94
2018-08-12T09:17:04.821Z,29.21
2018-08-12T09:18:05.092Z,29.78
2018-08-12T09:19:05.333Z,30.41
2018-08-12T09:20:05.579Z,30.71
2018-08-12T09:21:05.830Z,30.72
2018-08-12T09:22:06.082Z,30.54
2018-08-12T09:23:06.335Z,30.18
2018-08-12T09:24:06.661Z,29.60
2018-08-12T09:25:06.839Z,29.79
2018-08-12T09:26:07.090Z,29.79
2018-08-12T09:27:07.343Z,29.69
2018-08-12T09:28:08.098Z,29.89
2018-08-12T09:29:07.862Z,29.79
2018-08-12T09:30:08.115Z,29.58
2018-08-12T09:31:08.399Z,29.78
2018-08-12T09:32:08.654Z,29.60
2018-08-12T09:33:08.904Z,29.69
2018-08-12T09:34:09.158Z,29.29
2018-08-12T09:35:09.409Z,30.26
2018-08-12T09:36:09.666Z,30.85
2018-08-12T09:37:09.914Z,30.93
2018-08-12T09:38:10.168Z,30.74
2018-08-12T09:39:10.421Z,29.76
2018-08-12T09:40:10.676Z,30.43
2018-08-12T09:41:10.919Z,29.76
2018-08-12T09:42:11.178Z,28.74
2018-08-12T09:43:11.499Z,26.64
2018-08-12T09:44:11.691Z,26.43
2018-08-12T09:45:11.936Z,27.79
2018-08-12T09:46:12.189Z,28.92
2018-08-12T09:47:12.441Z,29.69
2018-08-12T09:48:12.693Z,28.44
2018-08-12T09:49:12.938Z,27.01
2018-08-12T09:50:13.176Z,25.47
2018-08-12T09:51:13.428Z,25.96
2018-08-12T09:52:13.681Z,25.47
2018-08-12T09:53:14.151Z,25.15
2018-08-12T09:54:14.172Z,25.74
2018-08-12T09:55:14.426Z,25.85
2018-08-12T09:56:14.679Z,25.36
2018-08-12T09:57:14.932Z,26.23
2018-08-12T09:58:15.188Z,26.30
2018-08-12T09:59:15.440Z,26.59
2018-08-12T10:00:15.719Z,27.26
2018-08-12T10:01:15.948Z,28.05
2018-08-12T10:02:16.202Z,26.80
2018-08-12T10:03:16.453Z,26.73
2018-08-12T10:04:16.801Z,26.45
2018-08-12T10:05:17.061Z,27.62
2018-08-12T10:06:17.313Z,29.05
2018-08-12T10:07:17.569Z,28.59
2018-08-12T10:08:17.820Z,27.78
2018-08-12T10:09:18.075Z,26.23
2018-08-12T10:10:18.326Z,25.89
2018-08-12T10:11:18.572Z,24.07
2018-08-12T10:12:18.828Z,23.96
2018-08-12T10:13:19.082Z,24.82
2018-08-12T10:14:19.335Z,24.47
2018-08-12T10:15:19.581Z,24.05
2018-08-12T10:16:19.832Z,23.94
2018-08-12T10:17:20.086Z,23.63
2018-08-12T10:18:20.342Z,24.79
2018-08-12T10:19:20.594Z,25.36
2018-08-12T10:20:20.849Z,26.61
2018-08-12T10:21:21.109Z,26.84
2018-08-12T10:22:21.363Z,27.94
2018-08-12T10:23:21.603Z,26.59
2018-08-12T10:24:21.856Z,26.14
2018-08-12T10:25:22.114Z,27.11
2018-08-12T10:26:22.369Z,29.83
2018-08-12T10:27:22.622Z,28.63
2018-08-12T10:28:22.878Z,26.62
2018-08-12T10:29:23.229Z,26.64
2018-08-12T10:30:23.384Z,25.56
2018-08-12T10:31:23.654Z,26.58
2018-08-12T10:32:23.913Z,28.44
2018-08-12T10:33:24.165Z,26.72
2018-08-12T10:34:24.419Z,25.68
2018-08-12T10:35:24.668Z,23.46
2018-08-12T10:36:24.926Z,24.18
2018-08-12T10:37:25.181Z,23.16
2018-08-12T10:38:25.435Z,23.09
2018-08-12T10:39:25.688Z,22.69
2018-08-12T10:40:25.948Z,22.30
2018-08-12T10:41:26.198Z,23.07
2018-08-12T10:42:26.454Z,23.15
2018-08-12T10:43:26.709Z,23.72
2018-08-12T10:44:27.049Z,23.73
2018-08-12T10:45:27.223Z,23.14
2018-08-12T10:46:27.474Z,23.73
2018-08-12T10:47:27.728Z,23.66
2018-08-12T10:48:27.984Z,23.08
2018-08-12T10:49:28.239Z,22.89
2018-08-12T10:50:28.495Z,22.81
2018-08-12T10:51:28.749Z,21.83
2018-08-12T10:52:29.004Z,21.94
2018-08-12T10:53:29.259Z,21.94
2018-08-12T10:54:29.513Z,21.76
2018-08-12T10:55:29.770Z,21.06
2018-08-12T10:56:30.025Z,20.84
2018-08-12T10:57:30.290Z,21.72
2018-08-12T10:58:30.547Z,21.58
2018-08-12T10:59:30.900Z,21.18
2018-08-12T11:00:31.059Z,21.86
2018-08-12T11:01:31.315Z,21.86
2018-08-12T11:02:31.575Z,21.36
2018-08-12T11:03:31.827Z,21.86
2018-08-12T11:04:32.083Z,21.00
2018-08-12T11:05:32.338Z,22.24
2018-08-12T11:06:32.595Z,22.91
2018-08-12T11:07:32.914Z,22.74
2018-08-12T11:08:33.104Z,23.78
2018-08-12T11:09:33.357Z,24.39
2018-08-12T11:10:33.618Z,24.15
2018-08-12T11:11:33.870Z,24.46
2018-08-12T11:12:34.185Z,24.39
2018-08-12T11:13:34.379Z,23.93
2018-08-12T11:14:34.634Z,22.74
2018-08-12T11:15:34.886Z,23.19
2018-08-12T11:16:35.143Z,24.28
2018-08-12T11:17:35.396Z,23.05
2018-08-12T11:18:35.651Z,22.75
2018-08-12T11:19:35.905Z,21.39
2018-08-12T11:20:36.236Z,21.39
2018-08-12T11:21:36.415Z,20.81
2018-08-12T11:22:36.669Z,20.53
2018-08-12T11:23:36.924Z,19.67
2018-08-12T11:24:37.180Z,19.46
2018-08-12T11:25:37.433Z,19.94
2018-08-12T11:26:37.691Z,20.78
2018-08-12T11:27:37.947Z,20.86
2018-08-12T11:28:38.211Z,21.75
2018-08-12T11:29:38.457Z,21.74
2018-08-12T11:30:38.711Z,21.97
2018-08-12T11:31:38.968Z,20.63
2018-08-12T11:32:39.220Z,19.57
2018-08-12T11:33:39.474Z,19.78
2018-08-12T11:34:39.757Z,19.47
2018-08-12T11:35:39.988Z,20.23
2018-08-12T11:36:40.241Z,20.61
2018-08-12T11:37:40.496Z,19.62
2018-08-12T11:38:40.752Z,19.60
2018-08-12T11:39:41.009Z,19.90
2018-08-12T11:40:41.262Z,18.66
2018-08-12T11:41:41.516Z,18.48
2018-08-12T11:42:41.771Z,18.51
2018-08-12T11:43:42.027Z,18.19
2018-08-12T11:44:42.283Z,19.08
2018-08-12T11:45:42.537Z,18.90
2018-08-12T11:46:42.793Z,19.35
2018-08-12T11:47:43.049Z,20.35
2018-08-12T11:48:43.301Z,19.90
2018-08-12T11:49:43.556Z,18.84
2018-08-12T11:50:43.812Z,18.46
2018-08-12T11:51:44.065Z,17.55
2018-08-12T11:52:44.354Z,18.24
2018-08-12T11:53:44.576Z,18.72
2018-08-12T11:54:44.830Z,17.91
2018-08-12T11:55:45.088Z,19.81
2018-08-12T11:56:45.342Z,20.92
2018-08-12T11:57:45.598Z,17.50
2018-08-12T11:58:45.854Z,17.21
2018-08-12T11:59:46.109Z,15.84
2018-08-12T12:00:46.364Z,17.22
2018-08-12T12:01:46.619Z,16.86
2018-08-12T12:02:46.875Z,15.98
2018-08-12T12:03:47.130Z,16.57
2018-08-12T12:04:47.386Z,16.27
2018-08-12T12:05:47.641Z,15.97
2018-08-12T12:06:47.906Z,16.47
2018-08-12T12:07:48.150Z,16.68
2018-08-12T12:08:48.406Z,16.77
2018-08-12T12:09:48.662Z,16.66
2018-08-12T12:10:48.917Z,17.15
2018-08-12T12:11:49.172Z,16.53
2018-08-12T12:12:49.428Z,16.56
2018-08-12T12:13:49.683Z,17.24
2018-08-12T12:14:49.941Z,17.24
2018-08-12T12:15:50.196Z,17.45
2018-08-12T12:16:50.453Z,17.05
2018-08-12T12:17:50.711Z,17.42
2018-08-12T12:18:50.966Z,19.95
2018-08-12T12:19:51.223Z,21.67
2018-08-12T12:20:51.480Z,22.17
2018-08-12T12:21:51.734Z,22.17
2018-08-12T12:22:51.990Z,21.53
2018-08-12T12:23:52.245Z,20.67
2018-08-12T12:24:52.499Z,20.21
2018-08-12T12:25:52.770Z,19.25
2018-08-12T12:26:53.011Z,18.86
2018-08-12T12:27:53.267Z,18.07
2018-08-12T12:28:53.522Z,17.30
2018-08-12T12:29:53.777Z,17.57
2018-08-12T12:30:54.037Z,18.06
2018-08-12T12:31:54.288Z,18.91
2018-08-12T12:32:54.550Z,19.18
2018-08-12T12:33:54.809Z,19.86
2018-08-12T12:34:55.061Z,19.20
2018-08-12T12:35:55.319Z,19.51
2018-08-12T12:36:55.575Z,19.04
2018-08-12T12:37:55.835Z,18.44
2018-08-12T12:38:56.087Z,19.43
2018-08-12T12:39:56.341Z,19.14
2018-08-12T12:40:56.598Z,18.46
2018-08-12T12:41:56.845Z,18.16
2018-08-12T12:42:57.182Z,16.97
2018-08-12T12:43:57.365Z,17.53
2018-08-12T12:44:57.625Z,18.79
2018-08-12T12:45:57.877Z,19.59
2018-08-12T12:46:58.144Z,18.63
2018-08-12T12:47:58.389Z,18.15
2018-08-12T12:48:58.644Z,18.71
2018-08-12T12:49:58.899Z,18.84
2018-08-12T12:50:59.159Z,19.04
2018-08-12T12:51:59.413Z,19.91
2018-08-12T12:52:59.669Z,21.75
2018-08-12T12:53:59.924Z,20.97
2018-08-12T12:55:00.182Z,20.79
2018-08-12T12:56:00.437Z,20.40